sensor_id;sensor_type;location;lat;lon;timestamp;P1;durP1;ratioP1;P2;durP2;ratioP2
73452;SDS011;61687;56.232;43.854;2024-02-21T00:01:03;10.80;;;6.70;;
73452;SDS011;61687;56.232;43.854;2024-02-21T00:03:31;11.60;;;6.97;;
73452;SDS011;61687;56.232;43.854;2024-02-21T00:05:57;15.32;;;6.82;;
73452;SDS011;61687;56.232;43.854;2024-02-21T00:08:22;10.73;;;6.32;;
73452;SDS011;61687;56.232;43.854;2024-02-21T00:10:48;9.40;;;5.30;;
73452;SDS011;61687;56.232;43.854;2024-02-21T00:13:14;10.07;;;5.83;;
73452;SDS011;61687;56.232;43.854;2024-02-21T00:15:40;12.18;;;7.03;;
73452;SDS011;61687;56.232;43.854;2024-02-21T00:18:06;11.82;;;6.63;;
73452;SDS011;61687;56.232;43.854;2024-02-21T00:20:32;10.90;;;6.50;;
73452;SDS011;61687;56.232;43.854;2024-02-21T00:22:58;9.35;;;5.88;;
73452;SDS011;61687;56.232;43.854;2024-02-21T00:25:24;12.07;;;6.50;;
73452;SDS011;61687;56.232;43.854;2024-02-21T00:27:50;11.18;;;6.57;;
73452;SDS011;61687;56.232;43.854;2024-02-21T00:30:16;10.50;;;6.00;;
73452;SDS011;61687;56.232;43.854;2024-02-21T00:32:41;10.73;;;6.65;;
73452;SDS011;61687;56.232;43.854;2024-02-21T00:35:07;12.82;;;6.78;;
73452;SDS011;61687;56.232;43.854;2024-02-21T00:37:33;10.63;;;5.70;;
73452;SDS011;61687;56.232;43.854;2024-02-21T00:39:59;11.32;;;6.72;;
73452;SDS011;61687;56.232;43.854;2024-02-21T00:42:25;13.35;;;6.43;;
73452;SDS011;61687;56.232;43.854;2024-02-21T00:44:51;11.65;;;6.30;;
73452;SDS011;61687;56.232;43.854;2024-02-21T00:47:17;10.47;;;5.80;;
73452;SDS011;61687;56.232;43.854;2024-02-21T00:49:43;11.02;;;6.07;;
73452;SDS011;61687;56.232;43.854;2024-02-21T00:52:09;11.23;;;6.85;;
73452;SDS011;61687;56.232;43.854;2024-02-21T00:54:35;10.73;;;6.40;;
73452;SDS011;61687;56.232;43.854;2024-02-21T00:57:01;12.73;;;6.80;;
73452;SDS011;61687;56.232;43.854;2024-02-21T00:59:27;10.80;;;6.80;;
73452;SDS011;61687;56.232;43.854;2024-02-21T01:01:52;11.50;;;6.50;;
73452;SDS011;61687;56.232;43.854;2024-02-21T01:04:18;10.15;;;6.00;;
73452;SDS011;61687;56.232;43.854;2024-02-21T01:06:44;11.82;;;6.28;;
73452;SDS011;61687;56.232;43.854;2024-02-21T01:09:10;13.15;;;6.68;;
73452;SDS011;61687;56.232;43.854;2024-02-21T01:11:37;9.70;;;6.07;;
73452;SDS011;61687;56.232;43.854;2024-02-21T01:14:03;10.23;;;6.38;;
73452;SDS011;61687;56.232;43.854;2024-02-21T01:16:28;9.73;;;5.78;;
73452;SDS011;61687;56.232;43.854;2024-02-21T01:18:54;15.57;;;6.77;;
73452;SDS011;61687;56.232;43.854;2024-02-21T01:21:21;11.52;;;6.15;;
73452;SDS011;61687;56.232;43.854;2024-02-21T01:23:47;11.57;;;5.88;;
73452;SDS011;61687;56.232;43.854;2024-02-21T01:26:12;10.45;;;5.90;;
73452;SDS011;61687;56.232;43.854;2024-02-21T01:28:41;10.57;;;5.80;;
73452;SDS011;61687;56.232;43.854;2024-02-21T01:31:07;11.07;;;5.72;;
73452;SDS011;61687;56.232;43.854;2024-02-21T01:33:35;10.82;;;6.13;;
73452;SDS011;61687;56.232;43.854;2024-02-21T01:36:01;9.93;;;5.32;;
73452;SDS011;61687;56.232;43.854;2024-02-21T01:38:28;12.23;;;5.50;;
73452;SDS011;61687;56.232;43.854;2024-02-21T01:40:54;10.57;;;5.57;;
73452;SDS011;61687;56.232;43.854;2024-02-21T01:43:20;12.60;;;5.45;;
73452;SDS011;61687;56.232;43.854;2024-02-21T01:45:48;9.50;;;5.35;;
73452;SDS011;61687;56.232;43.854;2024-02-21T01:48:16;9.98;;;5.68;;
73452;SDS011;61687;56.232;43.854;2024-02-21T01:50:43;9.50;;;5.33;;
73452;SDS011;61687;56.232;43.854;2024-02-21T01:53:11;10.00;;;5.15;;
73452;SDS011;61687;56.232;43.854;2024-02-21T01:55:44;11.10;;;6.05;;
73452;SDS011;61687;56.232;43.854;2024-02-21T01:58:12;9.43;;;5.20;;
73452;SDS011;61687;56.232;43.854;2024-02-21T02:00:44;10.13;;;5.30;;
73452;SDS011;61687;56.232;43.854;2024-02-21T02:03:12;10.50;;;5.37;;
73452;SDS011;61687;56.232;43.854;2024-02-21T02:05:43;9.77;;;5.70;;
73452;SDS011;61687;56.232;43.854;2024-02-21T02:08:17;8.63;;;4.55;;
73452;SDS011;61687;56.232;43.854;2024-02-21T02:10:45;7.97;;;4.78;;
73452;SDS011;61687;56.232;43.854;2024-02-21T02:13:12;8.15;;;5.22;;
73452;SDS011;61687;56.232;43.854;2024-02-21T02:15:39;8.10;;;4.57;;
73452;SDS011;61687;56.232;43.854;2024-02-21T02:18:10;8.48;;;4.88;;
73452;SDS011;61687;56.232;43.854;2024-02-21T02:20:36;8.50;;;4.43;;
73452;SDS011;61687;56.232;43.854;2024-02-21T02:23:10;10.20;;;4.80;;
73452;SDS011;61687;56.232;43.854;2024-02-21T02:25:46;8.30;;;4.77;;
73452;SDS011;61687;56.232;43.854;2024-02-21T02:28:22;7.25;;;4.13;;
73452;SDS011;61687;56.232;43.854;2024-02-21T02:30:48;8.45;;;5.00;;
73452;SDS011;61687;56.232;43.854;2024-02-21T02:33:15;7.80;;;4.88;;
73452;SDS011;61687;56.232;43.854;2024-02-21T02:35:43;7.90;;;4.87;;
73452;SDS011;61687;56.232;43.854;2024-02-21T02:38:09;7.40;;;4.53;;
73452;SDS011;61687;56.232;43.854;2024-02-21T02:40:37;10.82;;;4.55;;
73452;SDS011;61687;56.232;43.854;2024-02-21T02:43:04;7.65;;;4.25;;
73452;SDS011;61687;56.232;43.854;2024-02-21T02:45:30;7.38;;;4.45;;
73452;SDS011;61687;56.232;43.854;2024-02-21T02:47:56;7.22;;;4.90;;
73452;SDS011;61687;56.232;43.854;2024-02-21T02:50:23;6.40;;;4.07;;
73452;SDS011;61687;56.232;43.854;2024-02-21T02:52:49;6.82;;;4.13;;
73452;SDS011;61687;56.232;43.854;2024-02-21T02:55:15;8.60;;;5.00;;
73452;SDS011;61687;56.232;43.854;2024-02-21T02:57:42;7.13;;;4.38;;
73452;SDS011;61687;56.232;43.854;2024-02-21T03:00:10;8.05;;;3.83;;
73452;SDS011;61687;56.232;43.854;2024-02-21T03:02:37;7.57;;;4.28;;
73452;SDS011;61687;56.232;43.854;2024-02-21T03:05:11;8.07;;;5.25;;
73452;SDS011;61687;56.232;43.854;2024-02-21T03:07:47;10.83;;;4.70;;
73452;SDS011;61687;56.232;43.854;2024-02-21T03:10:14;6.97;;;4.10;;
73452;SDS011;61687;56.232;43.854;2024-02-21T03:12:44;7.05;;;4.85;;
73452;SDS011;61687;56.232;43.854;2024-02-21T03:15:10;8.20;;;4.70;;
73452;SDS011;61687;56.232;43.854;2024-02-21T03:17:37;6.47;;;4.22;;
73452;SDS011;61687;56.232;43.854;2024-02-21T03:20:04;8.37;;;4.43;;
73452;SDS011;61687;56.232;43.854;2024-02-21T03:22:31;7.90;;;4.15;;
73452;SDS011;61687;56.232;43.854;2024-02-21T03:25:00;7.68;;;4.22;;
73452;SDS011;61687;56.232;43.854;2024-02-21T03:27:30;9.93;;;3.97;;
73452;SDS011;61687;56.232;43.854;2024-02-21T03:29:56;9.23;;;4.72;;
73452;SDS011;61687;56.232;43.854;2024-02-21T03:32:22;9.98;;;4.82;;
73452;SDS011;61687;56.232;43.854;2024-02-21T03:34:48;8.35;;;3.88;;
73452;SDS011;61687;56.232;43.854;2024-02-21T03:37:14;7.38;;;4.35;;
73452;SDS011;61687;56.232;43.854;2024-02-21T03:39:40;6.80;;;3.60;;
73452;SDS011;61687;56.232;43.854;2024-02-21T03:42:06;7.07;;;4.22;;
73452;SDS011;61687;56.232;43.854;2024-02-21T03:44:32;6.35;;;3.67;;
73452;SDS011;61687;56.232;43.854;2024-02-21T03:46:59;7.10;;;4.30;;
73452;SDS011;61687;56.232;43.854;2024-02-21T03:49:25;6.43;;;4.20;;
73452;SDS011;61687;56.232;43.854;2024-02-21T03:51:51;5.47;;;3.67;;
73452;SDS011;61687;56.232;43.854;2024-02-21T03:54:18;7.35;;;4.32;;
73452;SDS011;61687;56.232;43.854;2024-02-21T03:56:44;5.95;;;4.00;;
73452;SDS011;61687;56.232;43.854;2024-02-21T03:59:10;7.10;;;4.60;;
73452;SDS011;61687;56.232;43.854;2024-02-21T04:01:36;8.18;;;4.25;;
73452;SDS011;61687;56.232;43.854;2024-02-21T04:04:02;6.95;;;4.70;;
73452;SDS011;61687;56.232;43.854;2024-02-21T04:06:28;7.70;;;4.60;;
73452;SDS011;61687;56.232;43.854;2024-02-21T04:08:54;6.40;;;4.05;;
73452;SDS011;61687;56.232;43.854;2024-02-21T04:11:20;7.07;;;3.95;;
73452;SDS011;61687;56.232;43.854;2024-02-21T04:13:47;6.55;;;3.70;;
73452;SDS011;61687;56.232;43.854;2024-02-21T04:16:16;6.70;;;4.07;;
73452;SDS011;61687;56.232;43.854;2024-02-21T04:18:43;7.53;;;4.27;;
73452;SDS011;61687;56.232;43.854;2024-02-21T04:21:09;6.53;;;3.95;;
73452;SDS011;61687;56.232;43.854;2024-02-21T04:23:35;6.65;;;4.20;;
73452;SDS011;61687;56.232;43.854;2024-02-21T04:26:01;6.18;;;4.00;;
73452;SDS011;61687;56.232;43.854;2024-02-21T04:28:27;7.32;;;4.05;;
73452;SDS011;61687;56.232;43.854;2024-02-21T04:30:53;6.17;;;3.43;;
73452;SDS011;61687;56.232;43.854;2024-02-21T04:33:19;7.38;;;4.50;;
73452;SDS011;61687;56.232;43.854;2024-02-21T04:35:45;6.68;;;3.83;;
73452;SDS011;61687;56.232;43.854;2024-02-21T04:38:11;8.53;;;4.03;;
73452;SDS011;61687;56.232;43.854;2024-02-21T04:40:37;7.97;;;4.30;;
73452;SDS011;61687;56.232;43.854;2024-02-21T04:43:03;6.32;;;3.97;;
73452;SDS011;61687;56.232;43.854;2024-02-21T04:45:29;8.30;;;4.33;;
73452;SDS011;61687;56.232;43.854;2024-02-21T04:47:54;6.47;;;4.35;;
73452;SDS011;61687;56.232;43.854;2024-02-21T04:50:20;6.10;;;4.20;;
73452;SDS011;61687;56.232;43.854;2024-02-21T04:52:46;7.83;;;5.10;;
73452;SDS011;61687;56.232;43.854;2024-02-21T04:55:12;7.28;;;3.80;;
73452;SDS011;61687;56.232;43.854;2024-02-21T04:57:38;7.13;;;4.25;;
73452;SDS011;61687;56.232;43.854;2024-02-21T05:00:05;6.67;;;4.03;;
73452;SDS011;61687;56.232;43.854;2024-02-21T05:02:31;7.20;;;4.05;;
73452;SDS011;61687;56.232;43.854;2024-02-21T05:04:57;7.15;;;4.30;;
73452;SDS011;61687;56.232;43.854;2024-02-21T05:07:23;8.20;;;4.60;;
73452;SDS011;61687;56.232;43.854;2024-02-21T05:09:49;9.05;;;4.65;;
73452;SDS011;61687;56.232;43.854;2024-02-21T05:12:15;6.85;;;4.13;;
73452;SDS011;61687;56.232;43.854;2024-02-21T05:14:41;7.93;;;4.60;;
73452;SDS011;61687;56.232;43.854;2024-02-21T05:17:07;7.70;;;4.23;;
73452;SDS011;61687;56.232;43.854;2024-02-21T05:19:33;6.18;;;3.95;;
73452;SDS011;61687;56.232;43.854;2024-02-21T05:21:59;7.13;;;3.97;;
73452;SDS011;61687;56.232;43.854;2024-02-21T05:24:25;7.07;;;3.87;;
73452;SDS011;61687;56.232;43.854;2024-02-21T05:26:51;6.72;;;3.90;;
73452;SDS011;61687;56.232;43.854;2024-02-21T05:29:17;6.63;;;3.47;;
73452;SDS011;61687;56.232;43.854;2024-02-21T05:31:54;6.43;;;4.00;;
73452;SDS011;61687;56.232;43.854;2024-02-21T05:34:24;8.52;;;4.25;;
73452;SDS011;61687;56.232;43.854;2024-02-21T05:36:51;7.20;;;4.10;;
73452;SDS011;61687;56.232;43.854;2024-02-21T05:39:17;6.22;;;3.50;;
73452;SDS011;61687;56.232;43.854;2024-02-21T05:41:44;7.03;;;4.05;;
73452;SDS011;61687;56.232;43.854;2024-02-21T05:44:10;6.83;;;3.83;;
73452;SDS011;61687;56.232;43.854;2024-02-21T05:46:36;6.68;;;4.20;;
73452;SDS011;61687;56.232;43.854;2024-02-21T05:49:02;7.63;;;4.68;;
73452;SDS011;61687;56.232;43.854;2024-02-21T05:51:32;7.57;;;4.80;;
73452;SDS011;61687;56.232;43.854;2024-02-21T05:53:58;6.82;;;3.72;;
73452;SDS011;61687;56.232;43.854;2024-02-21T05:56:25;10.38;;;4.45;;
73452;SDS011;61687;56.232;43.854;2024-02-21T05:58:51;7.60;;;4.15;;
73452;SDS011;61687;56.232;43.854;2024-02-21T06:01:16;7.10;;;4.67;;
73452;SDS011;61687;56.232;43.854;2024-02-21T06:03:43;6.15;;;3.90;;
73452;SDS011;61687;56.232;43.854;2024-02-21T06:06:09;6.22;;;3.85;;
73452;SDS011;61687;56.232;43.854;2024-02-21T06:08:35;5.78;;;3.47;;
73452;SDS011;61687;56.232;43.854;2024-02-21T06:11:01;6.27;;;4.10;;
73452;SDS011;61687;56.232;43.854;2024-02-21T06:13:27;5.75;;;3.85;;
73452;SDS011;61687;56.232;43.854;2024-02-21T06:15:53;8.85;;;4.68;;
73452;SDS011;61687;56.232;43.854;2024-02-21T06:18:19;7.97;;;4.00;;
73452;SDS011;61687;56.232;43.854;2024-02-21T06:20:46;8.30;;;4.88;;
73452;SDS011;61687;56.232;43.854;2024-02-21T06:23:12;7.43;;;4.40;;
73452;SDS011;61687;56.232;43.854;2024-02-21T06:25:41;6.80;;;3.83;;
73452;SDS011;61687;56.232;43.854;2024-02-21T06:28:07;7.23;;;4.63;;
73452;SDS011;61687;56.232;43.854;2024-02-21T06:30:33;8.85;;;4.53;;
73452;SDS011;61687;56.232;43.854;2024-02-21T06:32:59;7.13;;;4.43;;
73452;SDS011;61687;56.232;43.854;2024-02-21T06:35:25;6.70;;;4.80;;
73452;SDS011;61687;56.232;43.854;2024-02-21T06:37:51;6.05;;;4.22;;
73452;SDS011;61687;56.232;43.854;2024-02-21T06:40:19;8.37;;;4.97;;
73452;SDS011;61687;56.232;43.854;2024-02-21T06:42:48;7.00;;;3.60;;
73452;SDS011;61687;56.232;43.854;2024-02-21T06:45:15;8.25;;;4.57;;
73452;SDS011;61687;56.232;43.854;2024-02-21T06:47:41;5.72;;;3.95;;
73452;SDS011;61687;56.232;43.854;2024-02-21T06:50:08;7.38;;;4.38;;
73452;SDS011;61687;56.232;43.854;2024-02-21T06:52:34;5.07;;;3.40;;
73452;SDS011;61687;56.232;43.854;2024-02-21T06:55:01;6.35;;;4.18;;
73452;SDS011;61687;56.232;43.854;2024-02-21T06:57:30;7.38;;;4.10;;
73452;SDS011;61687;56.232;43.854;2024-02-21T06:59:56;6.15;;;4.03;;
73452;SDS011;61687;56.232;43.854;2024-02-21T07:02:22;6.30;;;4.00;;
73452;SDS011;61687;56.232;43.854;2024-02-21T07:04:48;7.78;;;4.60;;
73452;SDS011;61687;56.232;43.854;2024-02-21T07:07:13;6.90;;;4.30;;
73452;SDS011;61687;56.232;43.854;2024-02-21T07:09:40;5.80;;;3.60;;
73452;SDS011;61687;56.232;43.854;2024-02-21T07:12:06;5.45;;;3.70;;
73452;SDS011;61687;56.232;43.854;2024-02-21T07:14:32;5.70;;;3.90;;
73452;SDS011;61687;56.232;43.854;2024-02-21T07:16:58;6.80;;;5.10;;
73452;SDS011;61687;56.232;43.854;2024-02-21T07:19:24;7.00;;;4.20;;
73452;SDS011;61687;56.232;43.854;2024-02-21T07:21:50;8.13;;;4.78;;
73452;SDS011;61687;56.232;43.854;2024-02-21T07:24:16;7.80;;;4.85;;
73452;SDS011;61687;56.232;43.854;2024-02-21T07:26:42;7.73;;;4.10;;
73452;SDS011;61687;56.232;43.854;2024-02-21T07:29:08;7.32;;;4.47;;
73452;SDS011;61687;56.232;43.854;2024-02-21T07:31:41;7.45;;;4.82;;
73452;SDS011;61687;56.232;43.854;2024-02-21T07:34:08;6.25;;;4.50;;
73452;SDS011;61687;56.232;43.854;2024-02-21T07:36:34;5.73;;;3.90;;
73452;SDS011;61687;56.232;43.854;2024-02-21T07:39:00;7.35;;;4.30;;
73452;SDS011;61687;56.232;43.854;2024-02-21T07:41:26;6.38;;;4.57;;
73452;SDS011;61687;56.232;43.854;2024-02-21T07:43:55;7.03;;;4.20;;
73452;SDS011;61687;56.232;43.854;2024-02-21T07:46:21;8.00;;;4.63;;
73452;SDS011;61687;56.232;43.854;2024-02-21T07:48:47;4.27;;;2.83;;
73452;SDS011;61687;56.232;43.854;2024-02-21T07:51:14;6.43;;;4.07;;
73452;SDS011;61687;56.232;43.854;2024-02-21T07:53:42;7.28;;;5.38;;
73452;SDS011;61687;56.232;43.854;2024-02-21T07:56:11;6.85;;;4.38;;
73452;SDS011;61687;56.232;43.854;2024-02-21T07:58:41;8.95;;;4.50;;
73452;SDS011;61687;56.232;43.854;2024-02-21T08:01:07;7.97;;;4.20;;
73452;SDS011;61687;56.232;43.854;2024-02-21T08:03:34;8.48;;;5.03;;
73452;SDS011;61687;56.232;43.854;2024-02-21T08:06:00;8.68;;;5.22;;
73452;SDS011;61687;56.232;43.854;2024-02-21T08:08:27;5.85;;;3.40;;
73452;SDS011;61687;56.232;43.854;2024-02-21T08:10:52;8.13;;;4.27;;
73452;SDS011;61687;56.232;43.854;2024-02-21T08:13:18;6.57;;;4.15;;
73452;SDS011;61687;56.232;43.854;2024-02-21T08:15:44;5.88;;;4.47;;
73452;SDS011;61687;56.232;43.854;2024-02-21T08:18:10;6.93;;;4.50;;
73452;SDS011;61687;56.232;43.854;2024-02-21T08:20:36;10.13;;;5.03;;
73452;SDS011;61687;56.232;43.854;2024-02-21T08:23:02;9.30;;;5.40;;
73452;SDS011;61687;56.232;43.854;2024-02-21T08:25:28;8.43;;;5.80;;
73452;SDS011;61687;56.232;43.854;2024-02-21T08:27:58;8.07;;;4.82;;
73452;SDS011;61687;56.232;43.854;2024-02-21T08:30:25;8.30;;;4.45;;
73452;SDS011;61687;56.232;43.854;2024-02-21T08:32:51;7.43;;;4.28;;
73452;SDS011;61687;56.232;43.854;2024-02-21T08:35:20;7.45;;;5.35;;
73452;SDS011;61687;56.232;43.854;2024-02-21T08:37:48;7.90;;;4.72;;
73452;SDS011;61687;56.232;43.854;2024-02-21T08:40:14;6.93;;;4.80;;
73452;SDS011;61687;56.232;43.854;2024-02-21T08:42:44;8.45;;;5.10;;
73452;SDS011;61687;56.232;43.854;2024-02-21T08:45:10;8.43;;;5.22;;
73452;SDS011;61687;56.232;43.854;2024-02-21T08:47:39;8.50;;;5.03;;
73452;SDS011;61687;56.232;43.854;2024-02-21T08:50:06;7.40;;;4.47;;
73452;SDS011;61687;56.232;43.854;2024-02-21T08:52:34;9.40;;;4.95;;
73452;SDS011;61687;56.232;43.854;2024-02-21T08:55:00;7.20;;;4.90;;
73452;SDS011;61687;56.232;43.854;2024-02-21T08:57:29;7.63;;;4.88;;
73452;SDS011;61687;56.232;43.854;2024-02-21T08:59:55;6.32;;;4.60;;
73452;SDS011;61687;56.232;43.854;2024-02-21T09:02:20;8.93;;;4.38;;
73452;SDS011;61687;56.232;43.854;2024-02-21T09:04:46;8.25;;;4.57;;
73452;SDS011;61687;56.232;43.854;2024-02-21T09:07:12;7.90;;;4.97;;
73452;SDS011;61687;56.232;43.854;2024-02-21T09:09:38;7.07;;;4.80;;
73452;SDS011;61687;56.232;43.854;2024-02-21T09:12:06;8.65;;;4.57;;
73452;SDS011;61687;56.232;43.854;2024-02-21T09:14:33;6.68;;;4.45;;
73452;SDS011;61687;56.232;43.854;2024-02-21T09:16:59;7.27;;;4.60;;
73452;SDS011;61687;56.232;43.854;2024-02-21T09:19:25;7.07;;;4.57;;
73452;SDS011;61687;56.232;43.854;2024-02-21T09:21:51;6.55;;;4.25;;
73452;SDS011;61687;56.232;43.854;2024-02-21T09:24:17;7.32;;;4.88;;
73452;SDS011;61687;56.232;43.854;2024-02-21T09:26:43;6.87;;;3.97;;
73452;SDS011;61687;56.232;43.854;2024-02-21T09:29:09;6.40;;;4.10;;
73452;SDS011;61687;56.232;43.854;2024-02-21T09:31:35;6.53;;;5.10;;
73452;SDS011;61687;56.232;43.854;2024-02-21T09:34:01;7.78;;;5.20;;
73452;SDS011;61687;56.232;43.854;2024-02-21T09:36:27;7.43;;;5.63;;
73452;SDS011;61687;56.232;43.854;2024-02-21T09:38:54;8.15;;;4.75;;
73452;SDS011;61687;56.232;43.854;2024-02-21T09:41:26;8.75;;;4.72;;
73452;SDS011;61687;56.232;43.854;2024-02-21T09:43:53;6.80;;;4.38;;
73452;SDS011;61687;56.232;43.854;2024-02-21T09:46:21;8.77;;;4.95;;
73452;SDS011;61687;56.232;43.854;2024-02-21T09:49:03;8.00;;;5.00;;
73452;SDS011;61687;56.232;43.854;2024-02-21T09:51:38;8.27;;;4.90;;
73452;SDS011;61687;56.232;43.854;2024-02-21T09:54:07;10.43;;;5.63;;
73452;SDS011;61687;56.232;43.854;2024-02-21T09:56:33;6.90;;;4.40;;
73452;SDS011;61687;56.232;43.854;2024-02-21T09:58:59;7.20;;;4.55;;
73452;SDS011;61687;56.232;43.854;2024-02-21T10:01:31;8.77;;;4.90;;
73452;SDS011;61687;56.232;43.854;2024-02-21T10:03:57;7.32;;;4.88;;
73452;SDS011;61687;56.232;43.854;2024-02-21T10:06:23;7.88;;;4.65;;
73452;SDS011;61687;56.232;43.854;2024-02-21T10:08:52;7.25;;;4.45;;
73452;SDS011;61687;56.232;43.854;2024-02-21T10:11:25;6.23;;;3.80;;
73452;SDS011;61687;56.232;43.854;2024-02-21T10:14:02;9.35;;;4.85;;
73452;SDS011;61687;56.232;43.854;2024-02-21T10:16:34;6.18;;;4.20;;
73452;SDS011;61687;56.232;43.854;2024-02-21T10:19:00;8.77;;;4.80;;
73452;SDS011;61687;56.232;43.854;2024-02-21T10:21:26;8.05;;;4.57;;
73452;SDS011;61687;56.232;43.854;2024-02-21T10:23:52;7.77;;;4.17;;
73452;SDS011;61687;56.232;43.854;2024-02-21T10:26:18;8.45;;;4.75;;
73452;SDS011;61687;56.232;43.854;2024-02-21T10:28:46;9.43;;;4.63;;
73452;SDS011;61687;56.232;43.854;2024-02-21T10:31:21;8.73;;;5.10;;
73452;SDS011;61687;56.232;43.854;2024-02-21T10:33:56;8.07;;;4.57;;
73452;SDS011;61687;56.232;43.854;2024-02-21T10:36:23;7.85;;;5.00;;
73452;SDS011;61687;56.232;43.854;2024-02-21T10:38:51;9.13;;;4.40;;
73452;SDS011;61687;56.232;43.854;2024-02-21T10:41:19;10.15;;;4.88;;
73452;SDS011;61687;56.232;43.854;2024-02-21T10:43:50;8.87;;;3.93;;
73452;SDS011;61687;56.232;43.854;2024-02-21T10:46:21;6.95;;;4.18;;
73452;SDS011;61687;56.232;43.854;2024-02-21T10:48:48;8.10;;;4.95;;
73452;SDS011;61687;56.232;43.854;2024-02-21T10:51:28;7.57;;;3.85;;
73452;SDS011;61687;56.232;43.854;2024-02-21T10:56:54;8.43;;;4.27;;
73452;SDS011;61687;56.232;43.854;2024-02-21T10:59:23;6.80;;;3.65;;
73452;SDS011;61687;56.232;43.854;2024-02-21T11:01:52;7.63;;;4.20;;
73452;SDS011;61687;56.232;43.854;2024-02-21T11:04:17;7.00;;;4.28;;
73452;SDS011;61687;56.232;43.854;2024-02-21T11:06:44;7.47;;;4.37;;
73452;SDS011;61687;56.232;43.854;2024-02-21T11:09:11;7.28;;;4.30;;
73452;SDS011;61687;56.232;43.854;2024-02-21T11:11:40;9.75;;;4.70;;
73452;SDS011;61687;56.232;43.854;2024-02-21T11:14:17;8.07;;;5.00;;
73452;SDS011;61687;56.232;43.854;2024-02-21T11:16:44;8.88;;;4.55;;
73452;SDS011;61687;56.232;43.854;2024-02-21T11:19:20;6.90;;;3.88;;
73452;SDS011;61687;56.232;43.854;2024-02-21T11:21:47;6.75;;;4.07;;
73452;SDS011;61687;56.232;43.854;2024-02-21T11:24:25;6.32;;;3.28;;
73452;SDS011;61687;56.232;43.854;2024-02-21T11:29:56;7.38;;;4.40;;
73452;SDS011;61687;56.232;43.854;2024-02-21T11:32:23;6.95;;;4.63;;
73452;SDS011;61687;56.232;43.854;2024-02-21T11:34:57;6.78;;;3.95;;
73452;SDS011;61687;56.232;43.854;2024-02-21T11:37:34;7.60;;;4.50;;
73452;SDS011;61687;56.232;43.854;2024-02-21T11:40:04;8.77;;;4.68;;
73452;SDS011;61687;56.232;43.854;2024-02-21T11:42:32;7.90;;;4.63;;
73452;SDS011;61687;56.232;43.854;2024-02-21T11:44:59;6.93;;;4.50;;
73452;SDS011;61687;56.232;43.854;2024-02-21T11:47:28;7.20;;;4.32;;
73452;SDS011;61687;56.232;43.854;2024-02-21T11:49:54;8.60;;;5.25;;
73452;SDS011;61687;56.232;43.854;2024-02-21T11:52:24;9.95;;;4.85;;
73452;SDS011;61687;56.232;43.854;2024-02-21T11:54:54;8.20;;;4.43;;
73452;SDS011;61687;56.232;43.854;2024-02-21T11:57:22;9.65;;;4.93;;
73452;SDS011;61687;56.232;43.854;2024-02-21T11:59:48;9.88;;;5.28;;
73452;SDS011;61687;56.232;43.854;2024-02-21T12:02:17;10.30;;;5.30;;
73452;SDS011;61687;56.232;43.854;2024-02-21T12:04:44;9.80;;;5.50;;
73452;SDS011;61687;56.232;43.854;2024-02-21T12:07:10;8.77;;;4.63;;
73452;SDS011;61687;56.232;43.854;2024-02-21T12:09:36;7.88;;;4.78;;
73452;SDS011;61687;56.232;43.854;2024-02-21T12:12:05;10.00;;;4.97;;
73452;SDS011;61687;56.232;43.854;2024-02-21T12:14:32;9.17;;;5.03;;
73452;SDS011;61687;56.232;43.854;2024-02-21T12:17:00;9.88;;;5.05;;
73452;SDS011;61687;56.232;43.854;2024-02-21T12:19:30;8.70;;;5.03;;
73452;SDS011;61687;56.232;43.854;2024-02-21T12:21:58;7.22;;;4.03;;
73452;SDS011;61687;56.232;43.854;2024-02-21T12:24:25;7.38;;;4.68;;
73452;SDS011;61687;56.232;43.854;2024-02-21T12:26:53;7.33;;;4.00;;
73452;SDS011;61687;56.232;43.854;2024-02-21T12:29:23;7.03;;;4.18;;
73452;SDS011;61687;56.232;43.854;2024-02-21T12:31:54;7.43;;;4.60;;
73452;SDS011;61687;56.232;43.854;2024-02-21T12:34:20;8.32;;;4.60;;
73452;SDS011;61687;56.232;43.854;2024-02-21T12:36:47;9.85;;;5.72;;
73452;SDS011;61687;56.232;43.854;2024-02-21T12:39:13;12.40;;;5.47;;
73452;SDS011;61687;56.232;43.854;2024-02-21T12:41:39;11.30;;;6.03;;
73452;SDS011;61687;56.232;43.854;2024-02-21T12:44:07;9.65;;;6.00;;
73452;SDS011;61687;56.232;43.854;2024-02-21T12:46:34;10.40;;;5.85;;
73452;SDS011;61687;56.232;43.854;2024-02-21T12:49:03;10.97;;;5.27;;
73452;SDS011;61687;56.232;43.854;2024-02-21T12:51:30;9.88;;;5.95;;
73452;SDS011;61687;56.232;43.854;2024-02-21T12:53:57;9.70;;;5.45;;
73452;SDS011;61687;56.232;43.854;2024-02-21T12:56:24;8.07;;;4.68;;
73452;SDS011;61687;56.232;43.854;2024-02-21T12:58:52;8.50;;;4.32;;
73452;SDS011;61687;56.232;43.854;2024-02-21T13:01:19;10.87;;;5.50;;
73452;SDS011;61687;56.232;43.854;2024-02-21T13:03:45;8.88;;;5.97;;
73452;SDS011;61687;56.232;43.854;2024-02-21T13:06:12;9.27;;;5.57;;
73452;SDS011;61687;56.232;43.854;2024-02-21T13:08:38;10.45;;;5.55;;
73452;SDS011;61687;56.232;43.854;2024-02-21T13:11:05;11.90;;;5.50;;
73452;SDS011;61687;56.232;43.854;2024-02-21T13:13:31;7.97;;;4.87;;
73452;SDS011;61687;56.232;43.854;2024-02-21T13:15:57;12.15;;;6.38;;
73452;SDS011;61687;56.232;43.854;2024-02-21T13:18:24;10.20;;;6.20;;
73452;SDS011;61687;56.232;43.854;2024-02-21T13:20:50;10.38;;;6.15;;
73452;SDS011;61687;56.232;43.854;2024-02-21T13:23:16;7.95;;;4.88;;
73452;SDS011;61687;56.232;43.854;2024-02-21T13:25:43;8.85;;;5.03;;
73452;SDS011;61687;56.232;43.854;2024-02-21T13:28:11;10.60;;;5.40;;
73452;SDS011;61687;56.232;43.854;2024-02-21T13:30:37;11.20;;;5.15;;
73452;SDS011;61687;56.232;43.854;2024-02-21T13:33:03;13.23;;;6.10;;
73452;SDS011;61687;56.232;43.854;2024-02-21T13:35:31;11.25;;;5.72;;
73452;SDS011;61687;56.232;43.854;2024-02-21T13:37:57;10.15;;;5.55;;
73452;SDS011;61687;56.232;43.854;2024-02-21T13:40:23;12.73;;;5.70;;
73452;SDS011;61687;56.232;43.854;2024-02-21T13:42:50;7.37;;;4.50;;
73452;SDS011;61687;56.232;43.854;2024-02-21T13:45:16;6.38;;;4.38;;
73452;SDS011;61687;56.232;43.854;2024-02-21T13:47:42;6.45;;;4.47;;
73452;SDS011;61687;56.232;43.854;2024-02-21T13:50:08;8.48;;;5.20;;
73452;SDS011;61687;56.232;43.854;2024-02-21T13:52:36;9.57;;;4.83;;
73452;SDS011;61687;56.232;43.854;2024-02-21T13:55:03;9.40;;;4.75;;
73452;SDS011;61687;56.232;43.854;2024-02-21T13:57:30;10.27;;;4.68;;
73452;SDS011;61687;56.232;43.854;2024-02-21T13:59:55;7.07;;;4.25;;
73452;SDS011;61687;56.232;43.854;2024-02-21T14:02:21;8.60;;;4.63;;
73452;SDS011;61687;56.232;43.854;2024-02-21T14:04:47;9.15;;;4.55;;
73452;SDS011;61687;56.232;43.854;2024-02-21T14:07:13;8.25;;;4.50;;
73452;SDS011;61687;56.232;43.854;2024-02-21T14:09:39;7.67;;;4.00;;
73452;SDS011;61687;56.232;43.854;2024-02-21T14:12:05;7.75;;;4.93;;
73452;SDS011;61687;56.232;43.854;2024-02-21T14:14:35;8.13;;;4.22;;
73452;SDS011;61687;56.232;43.854;2024-02-21T14:17:02;10.00;;;3.97;;
73452;SDS011;61687;56.232;43.854;2024-02-21T14:19:29;8.07;;;4.18;;
73452;SDS011;61687;56.232;43.854;2024-02-21T14:21:55;7.05;;;4.47;;
73452;SDS011;61687;56.232;43.854;2024-02-21T14:24:22;8.13;;;4.75;;
73452;SDS011;61687;56.232;43.854;2024-02-21T14:26:49;9.32;;;4.75;;
73452;SDS011;61687;56.232;43.854;2024-02-21T14:29:15;10.20;;;4.90;;
73452;SDS011;61687;56.232;43.854;2024-02-21T14:31:41;11.45;;;5.60;;
73452;SDS011;61687;56.232;43.854;2024-02-21T14:34:08;10.02;;;4.72;;
73452;SDS011;61687;56.232;43.854;2024-02-21T14:36:34;7.78;;;4.25;;